createdAt,value
2017-07-22T00:00:17.740Z,998.8
2017-07-22T00:01:19.169Z,998.9
2017-07-22T00:02:20.575Z,999.0
2017-07-22T00:03:22.445Z,999.0
2017-07-22T00:04:23.846Z,999.0
2017-07-22T00:05:25.246Z,999.1
2017-07-22T00:06:26.765Z,999.2
2017-07-22T00:07:28.167Z,999.3
2017-07-22T00:08:29.595Z,999.3
2017-07-22T00:09:31.107Z,999.4
2017-07-22T00:10:32.547Z,999.5
2017-07-22T00:11:33.946Z,999.5
2017-07-22T00:12:35.450Z,999.4
2017-07-22T00:13:36.859Z,999.6
2017-07-22T00:14:38.310Z,999.7
2017-07-22T00:15:39.751Z,999.7
2017-07-22T00:16:41.192Z,999.7
2017-07-22T00:17:42.628Z,999.7
2017-07-22T00:18:44.466Z,999.7
2017-07-22T00:19:45.868Z,999.8
2017-07-22T00:20:47.756Z,999.8
2017-07-22T00:21:49.163Z,999.8
2017-07-22T00:22:50.590Z,999.7
2017-07-22T00:23:52.092Z,999.7
2017-07-22T00:24:53.499Z,999.7
2017-07-22T00:25:54.897Z,999.7
2017-07-22T00:26:56.326Z,999.8
2017-07-22T00:27:57.738Z,999.8
2017-07-22T00:28:59.141Z,999.7
2017-07-22T00:30:00.661Z,999.8
2017-07-22T00:31:02.066Z,999.7
2017-07-22T00:32:03.535Z,999.8
2017-07-22T00:33:04.957Z,999.7
2017-07-22T00:34:06.368Z,999.8
2017-07-22T00:35:07.840Z,999.8
2017-07-22T00:36:09.245Z,999.9
2017-07-22T00:37:10.719Z,999.9
2017-07-22T00:38:12.200Z,1000.0
2017-07-22T00:39:13.699Z,999.9
2017-07-22T00:40:15.128Z,999.8
2017-07-22T00:41:16.583Z,999.7
2017-07-22T00:42:17.985Z,999.7
2017-07-22T00:43:19.466Z,999.6
2017-07-22T00:44:20.885Z,999.7
2017-07-22T00:45:22.355Z,999.6
2017-07-22T00:46:23.794Z,999.7
2017-07-22T00:47:25.248Z,999.8
2017-07-22T00:48:26.683Z,999.9
2017-07-22T00:49:28.102Z,1000.0
2017-07-22T00:50:29.507Z,999.9
2017-07-22T00:51:30.995Z,999.9
2017-07-22T00:52:32.407Z,1000.0
2017-07-22T00:53:33.864Z,1000.0
2017-07-22T00:54:35.262Z,1000.0
2017-07-22T00:55:36.746Z,1000.1
2017-07-22T00:56:38.159Z,1000.1
2017-07-22T00:57:39.627Z,1000.2
2017-07-22T00:58:41.030Z,1000.1
2017-07-22T00:59:42.434Z,1000.1
2017-07-22T01:00:43.949Z,1000.2
2017-07-22T01:01:45.354Z,1000.2
2017-07-22T01:02:46.755Z,1000.3
2017-07-22T01:03:48.270Z,1000.4
2017-07-22T01:04:49.670Z,1000.4
2017-07-22T01:05:52.176Z,1000.4
2017-07-22T01:06:53.628Z,1000.4
2017-07-22T01:07:55.180Z,1000.4
2017-07-22T01:08:56.585Z,1000.5
2017-07-22T01:09:57.990Z,1000.6
2017-07-22T01:10:59.474Z,1000.6
2017-07-22T01:12:00.877Z,1000.6
2017-07-22T01:13:02.297Z,1000.6
2017-07-22T01:14:03.852Z,1000.5
2017-07-22T01:15:05.253Z,1000.6
2017-07-22T01:16:06.856Z,1000.6
2017-07-22T01:17:08.252Z,1000.6
2017-07-22T01:18:09.791Z,1000.5
2017-07-22T01:19:11.204Z,1000.6
2017-07-22T01:20:12.662Z,1000.6
2017-07-22T01:21:14.059Z,1000.6
2017-07-22T01:22:15.524Z,1000.5
2017-07-22T01:23:17.243Z,1000.6
2017-07-22T01:24:18.661Z,1000.6
2017-07-22T01:25:20.166Z,1000.7
2017-07-22T01:26:21.575Z,1000.7
2017-07-22T01:27:23.003Z,1000.8
2017-07-22T01:28:24.474Z,1000.8
2017-07-22T01:29:25.877Z,1000.9
2017-07-22T01:30:27.357Z,1001.0
2017-07-22T01:31:28.756Z,1001.0
2017-07-22T01:32:31.256Z,1001.1
2017-07-22T01:33:32.667Z,1001.1
2017-07-22T01:34:34.186Z,1001.2
2017-07-22T01:35:35.606Z,1001.3
2017-07-22T01:36:37.020Z,1001.3
2017-07-22T01:37:38.448Z,1001.3
2017-07-22T01:38:39.899Z,1001.3
2017-07-22T01:39:41.309Z,1001.3
2017-07-22T01:40:42.746Z,1001.4
2017-07-22T01:41:44.242Z,1001.4
2017-07-22T01:42:45.676Z,1001.5
2017-07-22T01:43:47.049Z,1001.6
2017-07-22T01:44:48.576Z,1001.6
2017-07-22T01:45:50.012Z,1001.7
2017-07-22T01:46:51.552Z,1001.8
2017-07-22T01:47:52.958Z,1001.9
2017-07-22T01:48:54.362Z,1001.9
2017-07-22T01:49:55.844Z,1001.9
2017-07-22T01:50:57.249Z,1001.8
2017-07-22T01:51:58.983Z,1001.9
2017-07-22T01:53:00.475Z,1001.8
2017-07-22T01:54:01.880Z,1001.6
2017-07-22T01:55:03.320Z,1001.4
2017-07-22T01:56:04.794Z,1001.1
2017-07-22T01:57:06.200Z,1000.9
2017-07-22T01:58:07.677Z,1000.5
2017-07-22T01:59:09.098Z,1000.2
2017-07-22T02:00:10.508Z,999.9
2017-07-22T02:01:12.022Z,999.6
2017-07-22T02:02:13.418Z,999.4
2017-07-22T02:03:14.831Z,999.1
2017-07-22T02:04:16.314Z,998.8
2017-07-22T02:05:17.717Z,998.5
2017-07-22T02:06:19.148Z,998.1
2017-07-22T02:07:20.637Z,997.9
2017-07-22T02:08:22.068Z,997.6
2017-07-22T02:09:23.475Z,997.4
2017-07-22T02:10:24.957Z,997.1
2017-07-22T02:11:26.359Z,996.9
2017-07-22T02:12:27.760Z,996.8
2017-07-22T02:13:29.190Z,996.6
2017-07-22T02:14:30.589Z,996.4
2017-07-22T02:15:32.022Z,996.4
2017-07-22T02:16:33.496Z,996.4
2017-07-22T02:17:34.918Z,996.4
2017-07-22T02:18:36.321Z,996.4
2017-07-22T02:19:37.816Z,996.3
2017-07-22T02:20:39.217Z,996.2
2017-07-22T02:21:40.619Z,996.2
2017-07-22T02:22:42.168Z,996.2
2017-07-22T02:23:43.583Z,996.2
2017-07-22T02:24:44.989Z,996.1
2017-07-22T02:25:46.461Z,996.2
2017-07-22T02:26:47.856Z,996.3
2017-07-22T02:27:49.257Z,996.3
2017-07-22T02:28:50.677Z,996.4
2017-07-22T02:29:52.107Z,996.4
2017-07-22T02:30:53.480Z,996.4
2017-07-22T02:31:54.906Z,996.5
2017-07-22T02:32:56.310Z,996.6
2017-07-22T02:33:57.712Z,996.7
2017-07-22T02:34:59.217Z,996.8
2017-07-22T02:36:00.619Z,996.9
2017-07-22T02:37:02.028Z,997.0
2017-07-22T02:38:03.620Z,997.0
2017-07-22T02:39:05.055Z,997.0
2017-07-22T02:40:06.433Z,997.1
2017-07-22T02:41:07.858Z,997.0
2017-07-22T02:42:09.261Z,997.1
2017-07-22T02:43:10.679Z,997.1
2017-07-22T02:44:12.179Z,997.1
2017-07-22T02:45:13.579Z,997.2
2017-07-22T02:46:15.074Z,997.2
2017-07-22T02:47:16.475Z,997.3
2017-07-22T02:48:17.985Z,997.3
2017-07-22T02:49:19.423Z,997.3
2017-07-22T02:50:20.807Z,997.4
2017-07-22T02:51:22.267Z,997.5
2017-07-22T02:52:23.666Z,997.5
2017-07-22T02:53:25.112Z,997.6
2017-07-22T02:54:26.584Z,997.6
2017-07-22T02:55:27.991Z,997.8
2017-07-22T02:56:29.465Z,997.8
2017-07-22T02:57:30.868Z,997.8
2017-07-22T02:58:32.347Z,997.8
2017-07-22T02:59:33.751Z,997.9
2017-07-22T03:00:35.236Z,997.9
2017-07-22T03:01:36.641Z,997.9
2017-07-22T03:02:38.126Z,997.7
2017-07-22T03:03:39.525Z,997.7
2017-07-22T03:04:40.929Z,997.6
2017-07-22T03:05:42.428Z,997.5
2017-07-22T03:06:43.831Z,997.3
2017-07-22T03:07:45.254Z,997.4
2017-07-22T03:08:46.752Z,997.3
2017-07-22T03:09:48.160Z,997.1
2017-07-22T03:10:49.559Z,997.2
2017-07-22T03:11:51.066Z,997.0
2017-07-22T03:12:52.470Z,997.0
2017-07-22T03:13:53.949Z,996.9
2017-07-22T03:14:55.373Z,996.8
2017-07-22T03:15:56.838Z,996.7
2017-07-22T03:16:58.249Z,996.6
2017-07-22T03:17:59.713Z,996.6
2017-07-22T03:19:01.118Z,996.6
2017-07-22T03:20:02.605Z,996.5
2017-07-22T03:21:04.008Z,996.5
2017-07-22T03:22:05.483Z,996.6
2017-07-22T03:23:06.972Z,996.6
2017-07-22T03:24:08.530Z,996.7
2017-07-22T03:25:09.943Z,996.7
2017-07-22T03:26:11.437Z,996.7
2017-07-22T03:27:12.957Z,996.8
2017-07-22T03:28:14.425Z,996.8
2017-07-22T03:29:15.855Z,996.9
2017-07-22T03:30:17.250Z,996.8
2017-07-22T03:31:18.759Z,996.8
2017-07-22T03:32:20.161Z,996.7
2017-07-22T03:33:21.563Z,996.7
2017-07-22T03:34:23.064Z,996.7
2017-07-22T03:35:24.467Z,996.8
2017-07-22T03:36:25.896Z,996.8
2017-07-22T03:37:27.384Z,996.7
2017-07-22T03:38:28.791Z,996.6
2017-07-22T03:39:30.191Z,996.7
2017-07-22T03:40:31.801Z,996.8
2017-07-22T03:41:33.204Z,996.7
2017-07-22T03:42:34.688Z,996.8
2017-07-22T03:43:36.132Z,996.8
2017-07-22T03:44:37.568Z,996.9
2017-07-22T03:45:38.977Z,996.9
2017-07-22T03:46:40.455Z,997.0
2017-07-22T03:47:41.853Z,997.0
2017-07-22T03:48:43.330Z,997.0
2017-07-22T03:49:44.737Z,997.0
2017-07-22T03:50:46.212Z,997.0
2017-07-22T03:51:47.623Z,997.1
2017-07-22T03:52:49.092Z,997.2
2017-07-22T03:53:50.491Z,997.2
2017-07-22T03:54:51.977Z,997.3
2017-07-22T03:55:53.377Z,997.4
2017-07-22T03:56:54.855Z,997.4
2017-07-22T03:57:56.263Z,997.5
2017-07-22T03:58:57.735Z,997.5
2017-07-22T03:59:59.138Z,997.6
2017-07-22T04:01:00.535Z,997.7
2017-07-22T04:02:01.960Z,997.7
2017-07-22T04:03:03.392Z,997.8
2017-07-22T04:04:04.794Z,997.9
2017-07-22T04:05:06.291Z,997.9
2017-07-22T04:06:07.700Z,998.0
2017-07-22T04:07:09.181Z,998.1
2017-07-22T04:08:10.585Z,998.1
2017-07-22T04:09:13.061Z,998.1
2017-07-22T04:10:14.464Z,998.2
2017-07-22T04:11:15.872Z,998.3
2017-07-22T04:12:17.381Z,998.4
2017-07-22T04:13:18.786Z,998.5
2017-07-22T04:14:20.194Z,998.6
2017-07-22T04:15:21.719Z,998.7
2017-07-22T04:16:23.124Z,998.7
2017-07-22T04:17:24.527Z,998.8
2017-07-22T04:18:26.027Z,999.0
2017-07-22T04:19:27.432Z,999.0
2017-07-22T04:20:28.841Z,999.2
2017-07-22T04:21:30.344Z,999.1
2017-07-22T04:22:31.751Z,999.1
2017-07-22T04:23:33.225Z,999.3
2017-07-22T04:24:34.628Z,999.4
2017-07-22T04:25:36.031Z,999.4
2017-07-22T04:26:37.546Z,999.6
2017-07-22T04:27:38.950Z,999.6
2017-07-22T04:28:40.362Z,999.6
2017-07-22T04:29:41.865Z,999.8
2017-07-22T04:30:43.271Z,1000.0
2017-07-22T04:31:44.675Z,1000.2
2017-07-22T04:32:46.187Z,1000.4
2017-07-22T04:33:47.593Z,1000.6
2017-07-22T04:34:49.001Z,1000.7
2017-07-22T04:35:50.508Z,1000.8
2017-07-22T04:36:51.920Z,1000.9
2017-07-22T04:37:53.338Z,1000.9
2017-07-22T04:38:54.832Z,1001.0
2017-07-22T04:39:56.235Z,1000.9
2017-07-22T04:40:57.661Z,1000.8
2017-07-22T04:42:00.177Z,1000.9
2017-07-22T04:43:01.595Z,1001.1
2017-07-22T04:44:03.058Z,1001.1
2017-07-22T04:45:04.466Z,1001.3
2017-07-22T04:46:05.947Z,1001.3
2017-07-22T04:47:07.354Z,1001.4
2017-07-22T04:48:08.839Z,1001.6
2017-07-22T04:49:10.246Z,1001.7
2017-07-22T04:50:11.700Z,1001.8
2017-07-22T04:51:13.108Z,1002.0
2017-07-22T04:52:14.582Z,1002.1
2017-07-22T04:53:16.008Z,1002.1
2017-07-22T04:54:17.470Z,1002.2
2017-07-22T04:55:18.914Z,1002.3
2017-07-22T04:56:20.356Z,1002.4
2017-07-22T04:57:21.775Z,1002.5
2017-07-22T04:58:23.224Z,1002.6
2017-07-22T04:59:24.634Z,1002.8
2017-07-22T05:00:26.130Z,1002.8
2017-07-22T05:01:27.539Z,1002.8
2017-07-22T05:02:28.988Z,1002.9
2017-07-22T05:03:30.394Z,1003.0
2017-07-22T05:04:31.863Z,1003.1
2017-07-22T05:05:33.274Z,1003.2
2017-07-22T05:06:34.678Z,1003.4
2017-07-22T05:07:36.188Z,1003.4
2017-07-22T05:08:37.600Z,1003.6
2017-07-22T05:09:39.020Z,1003.7
2017-07-22T05:10:40.507Z,1003.8
2017-07-22T05:11:41.913Z,1004.0
2017-07-22T05:12:43.327Z,1004.1
2017-07-22T05:13:44.828Z,1004.2
2017-07-22T05:14:46.249Z,1004.3
2017-07-22T05:15:47.733Z,1004.4
2017-07-22T05:16:49.149Z,1004.6
2017-07-22T05:17:50.553Z,1004.7
2017-07-22T05:18:52.027Z,1004.8
2017-07-22T05:19:53.437Z,1005.0
2017-07-22T05:20:54.841Z,1005.2
2017-07-22T05:21:56.350Z,1005.2
2017-07-22T05:22:57.768Z,1005.4
2017-07-22T05:23:59.231Z,1005.5
2017-07-22T05:25:00.638Z,1005.6
2017-07-22T05:26:02.109Z,1005.7
2017-07-22T05:27:03.515Z,1005.8
2017-07-22T05:28:05.000Z,1005.8
2017-07-22T05:29:06.410Z,1005.8
2017-07-22T05:30:07.904Z,1005.9
2017-07-22T05:31:09.330Z,1006.0
2017-07-22T05:32:10.748Z,1006.1
2017-07-22T05:33:12.194Z,1006.2
2017-07-22T05:34:13.600Z,1006.3
2017-07-22T05:35:15.009Z,1006.3
2017-07-22T05:36:16.516Z,1006.3
2017-07-22T05:37:17.959Z,1006.1
2017-07-22T05:38:19.397Z,1006.2
2017-07-22T05:39:20.827Z,1006.3
2017-07-22T05:40:22.280Z,1006.6
2017-07-22T05:41:23.684Z,1006.8
2017-07-22T05:42:25.092Z,1007.1
2017-07-22T05:43:26.597Z,1007.2
2017-07-22T05:44:28.028Z,1007.3
2017-07-22T05:45:29.438Z,1007.5
2017-07-22T05:46:30.973Z,1007.6
2017-07-22T05:47:32.382Z,1007.9
2017-07-22T05:48:33.904Z,1008.1
2017-07-22T05:49:35.313Z,1008.2
2017-07-22T05:50:36.784Z,1008.4
2017-07-22T05:51:38.210Z,1008.6
2017-07-22T05:52:39.738Z,1008.7
2017-07-22T05:53:41.146Z,1008.7
2017-07-22T05:54:42.736Z,1008.8
2017-07-22T05:55:44.061Z,1008.8
2017-07-22T05:56:45.526Z,1008.9
2017-07-22T05:57:46.936Z,1009.1
2017-07-22T05:58:48.344Z,1009.3
2017-07-22T05:59:49.849Z,1009.5
2017-07-22T06:00:51.257Z,1009.7
2017-07-22T06:01:52.667Z,1009.8
2017-07-22T06:02:54.167Z,1009.9
2017-07-22T06:03:55.580Z,1010.0
2017-07-22T06:04:57.003Z,1010.1
2017-07-22T06:05:58.488Z,1010.1
2017-07-22T06:06:59.925Z,1010.2
2017-07-22T06:08:01.334Z,1010.3
2017-07-22T06:09:02.809Z,1010.3
2017-07-22T06:10:04.250Z,1010.2
2017-07-22T06:11:05.646Z,1010.3
2017-07-22T06:12:07.130Z,1010.2
2017-07-22T06:13:08.497Z,1010.2
2017-07-22T06:14:10.029Z,1010.2
2017-07-22T06:15:11.423Z,1010.2
2017-07-22T06:16:12.893Z,1010.5
2017-07-22T06:17:14.302Z,1010.7
2017-07-22T06:18:15.711Z,1010.9
2017-07-22T06:19:17.214Z,1011.1
2017-07-22T06:20:18.657Z,1011.3
2017-07-22T06:21:20.078Z,1011.5
2017-07-22T06:22:21.540Z,1011.7
2017-07-22T06:23:22.947Z,1011.7
2017-07-22T06:24:24.416Z,1011.9
2017-07-22T06:25:25.828Z,1012.0
2017-07-22T06:26:27.297Z,1012.1
2017-07-22T06:27:28.715Z,1012.4
2017-07-22T06:28:30.120Z,1012.6
2017-07-22T06:29:31.648Z,1012.8
2017-07-22T06:30:33.048Z,1013.0
2017-07-22T06:31:34.486Z,1013.2
2017-07-22T06:32:35.934Z,1013.4
2017-07-22T06:33:37.346Z,1013.5
2017-07-22T06:34:38.841Z,1013.8
2017-07-22T06:35:40.271Z,1014.0
2017-07-22T06:36:42.305Z,1013.9
2017-07-22T06:37:43.715Z,1013.8
2017-07-22T06:38:45.202Z,1013.7
2017-07-22T06:39:46.731Z,1013.6
2017-07-22T06:40:48.286Z,1013.6
2017-07-22T06:41:49.795Z,1013.8
2017-07-22T06:42:51.391Z,1013.8
2017-07-22T06:43:52.803Z,1013.9
2017-07-22T06:44:54.276Z,1014.0
2017-07-22T06:45:55.695Z,1014.2
2017-07-22T06:46:57.330Z,1014.3
2017-07-22T06:47:58.745Z,1014.5
2017-07-22T06:49:00.224Z,1014.6
2017-07-22T06:50:01.631Z,1014.8
2017-07-22T06:51:03.091Z,1014.9
2017-07-22T06:52:04.508Z,1015.1
2017-07-22T06:53:05.971Z,1015.2
2017-07-22T06:54:07.423Z,1015.3
2017-07-22T06:55:08.855Z,1015.3
2017-07-22T06:56:10.266Z,1015.4
2017-07-22T06:57:11.729Z,1015.5
2017-07-22T06:58:13.148Z,1015.7
2017-07-22T06:59:14.554Z,1015.9
2017-07-22T07:00:16.055Z,1016.2
2017-07-22T07:01:17.497Z,1016.5
2017-07-22T07:02:18.985Z,1016.7
2017-07-22T07:03:20.492Z,1017.0
2017-07-22T07:04:21.902Z,1017.5
2017-07-22T07:05:23.312Z,1017.8
2017-07-22T07:06:24.798Z,1018.1
2017-07-22T07:07:26.206Z,1018.2
2017-07-22T07:08:27.612Z,1018.2
2017-07-22T07:09:29.123Z,1018.1
2017-07-22T07:10:30.534Z,1018.2
2017-07-22T07:11:31.945Z,1018.2
2017-07-22T07:12:33.454Z,1018.2
2017-07-22T07:13:34.857Z,1018.4
2017-07-22T07:14:36.319Z,1018.5
2017-07-22T07:15:37.739Z,1018.6
2017-07-22T07:16:39.229Z,1018.8
2017-07-22T07:17:40.650Z,1018.9
2017-07-22T07:18:42.082Z,1019.0
2017-07-22T07:19:43.525Z,1019.2
2017-07-22T07:20:44.964Z,1019.3
2017-07-22T07:21:46.373Z,1019.3
2017-07-22T07:22:47.840Z,1019.4
2017-07-22T07:23:49.312Z,1019.5
2017-07-22T07:24:50.825Z,1019.7
2017-07-22T07:25:52.263Z,1019.8
2017-07-22T07:26:53.703Z,1020.0
2017-07-22T07:27:55.116Z,1020.2
2017-07-22T07:28:56.522Z,1020.3
2017-07-22T07:29:58.026Z,1020.4
2017-07-22T07:30:59.436Z,1020.4
2017-07-22T07:32:00.867Z,1020.5
2017-07-22T07:33:02.345Z,1020.7
2017-07-22T07:34:03.756Z,1020.7
2017-07-22T07:35:05.232Z,1020.6
2017-07-22T07:36:06.641Z,1020.6
2017-07-22T07:37:08.124Z,1020.7
2017-07-22T07:38:09.539Z,1020.8
2017-07-22T07:39:11.091Z,1021.0
2017-07-22T07:40:12.503Z,1021.2
2017-07-22T07:41:13.971Z,1021.4
2017-07-22T07:42:15.386Z,1021.5
2017-07-22T07:43:16.864Z,1021.7
2017-07-22T07:44:18.300Z,1022.0
2017-07-22T07:45:19.733Z,1022.1
2017-07-22T07:46:21.147Z,1022.3
2017-07-22T07:47:22.612Z,1022.6
2017-07-22T07:48:24.025Z,1023.0
2017-07-22T07:49:25.434Z,1023.1
2017-07-22T07:50:26.934Z,1023.2
2017-07-22T07:51:28.342Z,1023.5
2017-07-22T07:52:29.847Z,1023.6
2017-07-22T07:53:31.377Z,1023.8
2017-07-22T07:54:32.769Z,1023.9
2017-07-22T07:55:34.240Z,1024.1
2017-07-22T07:56:35.646Z,1024.3
2017-07-22T07:57:37.161Z,1024.5
2017-07-22T07:58:38.588Z,1024.6
2017-07-22T07:59:39.990Z,1024.9
2017-07-22T08:00:41.478Z,1025.0
2017-07-22T08:01:42.854Z,1025.2
2017-07-22T08:02:44.265Z,1025.4
2017-07-22T08:03:45.762Z,1025.6
2017-07-22T08:04:47.184Z,1025.8
2017-07-22T08:05:48.667Z,1025.9
2017-07-22T08:06:50.082Z,1026.3
2017-07-22T08:07:51.562Z,1026.5
2017-07-22T08:08:52.981Z,1026.7
2017-07-22T08:09:54.396Z,1026.8
2017-07-22T08:10:55.856Z,1026.9
2017-07-22T08:11:57.205Z,1027.0
2017-07-22T08:12:58.620Z,1027.1
2017-07-22T08:14:00.068Z,1027.2
2017-07-22T08:15:01.497Z,1027.4
2017-07-22T08:16:02.927Z,1027.3
2017-07-22T08:17:04.386Z,1027.5
2017-07-22T08:18:05.820Z,1027.6
2017-07-22T08:19:07.234Z,1027.5
2017-07-22T08:20:08.710Z,1027.7
2017-07-22T08:21:10.119Z,1027.9
2017-07-22T08:22:11.589Z,1028.2
2017-07-22T08:23:13.172Z,1028.5
2017-07-22T08:24:14.676Z,1028.4
2017-07-22T08:25:16.104Z,1028.4
2017-07-22T08:26:17.554Z,1028.8
2017-07-22T08:27:18.967Z,1029.1
2017-07-22T08:28:20.377Z,1029.8
2017-07-22T08:29:21.913Z,1030.5
2017-07-22T08:30:23.338Z,1031.4
2017-07-22T08:31:24.749Z,1031.6
2017-07-22T08:32:26.192Z,1031.3
2017-07-22T08:33:27.602Z,1030.9
2017-07-22T08:34:29.015Z,1030.4
2017-07-22T08:35:30.520Z,1030.0
2017-07-22T08:36:31.951Z,1029.4
2017-07-22T08:37:33.362Z,1029.0
2017-07-22T08:38:34.801Z,1029.1
2017-07-22T08:39:36.621Z,1029.4
2017-07-22T08:40:38.100Z,1029.8
2017-07-22T08:41:39.973Z,1030.8
2017-07-22T08:42:41.397Z,1031.6
2017-07-22T08:43:42.887Z,1032.6
2017-07-22T08:44:44.302Z,1032.9
2017-07-22T08:45:45.759Z,1033.4
2017-07-22T08:46:47.168Z,1033.6
2017-07-22T08:47:48.615Z,1033.7
2017-07-22T08:48:50.071Z,1033.6
2017-07-22T08:49:51.495Z,1034.0
2017-07-22T08:50:52.970Z,1034.3
2017-07-22T08:51:54.385Z,1034.6
2017-07-22T08:52:55.803Z,1034.5
2017-07-22T08:53:57.257Z,1034.4
2017-07-22T08:54:58.667Z,1034.1
2017-07-22T08:56:00.091Z,1034.1
2017-07-22T08:57:01.582Z,1034.4
2017-07-22T08:58:03.013Z,1034.7
2017-07-22T08:59:04.430Z,1035.1
2017-07-22T09:00:06.925Z,1035.8
2017-07-22T09:01:08.335Z,1036.1
2017-07-22T09:02:09.757Z,1036.7
2017-07-22T09:03:11.277Z,1036.3
2017-07-22T09:04:12.682Z,1036.1
2017-07-22T09:05:14.110Z,1036.0
2017-07-22T09:06:15.568Z,1037.0
2017-07-22T09:07:16.981Z,1037.3
2017-07-22T09:08:18.448Z,1037.0
2017-07-22T09:09:19.863Z,1038.2
2017-07-22T09:10:21.361Z,1039.2
2017-07-22T09:11:22.773Z,1039.8
2017-07-22T09:12:24.237Z,1039.5
2017-07-22T09:13:25.651Z,1039.5
2017-07-22T09:14:27.123Z,1038.8
2017-07-22T09:15:28.635Z,1039.3
2017-07-22T09:16:30.084Z,1043.2
2017-07-22T09:17:31.564Z,1049.4
2017-07-22T09:18:33.063Z,1051.7
2017-07-22T09:19:34.486Z,1057.3
2017-07-22T09:20:35.909Z,1058.1
2017-07-22T09:21:37.370Z,1060.2
2017-07-22T09:22:38.791Z,1062.6
2017-07-22T09:23:40.207Z,1065.2
2017-07-22T09:24:41.716Z,1065.5
2017-07-22T09:25:43.137Z,1061.2
2017-07-22T09:26:44.552Z,1052.2
2017-07-22T09:27:46.010Z,1053.3
2017-07-22T09:28:47.436Z,1052.7
2017-07-22T09:29:48.841Z,1052.7
2017-07-22T09:30:50.340Z,1053.6
2017-07-22T09:31:51.787Z,1054.4
2017-07-22T09:32:54.631Z,1055.3
2017-07-22T09:33:56.044Z,1056.0
2017-07-22T09:34:57.458Z,1056.7
2017-07-22T09:35:58.973Z,1057.2
2017-07-22T09:37:00.423Z,1057.8
2017-07-22T09:38:01.853Z,1058.5
2017-07-22T09:39:03.320Z,1059.0
2017-07-22T09:40:04.737Z,1059.6
2017-07-22T09:41:06.167Z,1060.4
2017-07-22T09:42:07.619Z,1060.9
2017-07-22T09:43:09.103Z,1061.5
2017-07-22T09:44:10.619Z,1062.0
2017-07-22T09:45:12.048Z,1062.6
2017-07-22T09:46:13.569Z,1063.2
2017-07-22T09:47:14.979Z,1063.8
2017-07-22T09:48:16.464Z,1064.4
2017-07-22T09:49:17.901Z,1065.3
2017-07-22T09:50:19.326Z,1066.1
2017-07-22T09:51:20.806Z,1066.9
2017-07-22T09:52:22.226Z,1067.7
2017-07-22T09:53:23.671Z,1068.5
2017-07-22T09:54:25.102Z,1069.4
2017-07-22T09:55:26.520Z,1070.1
2017-07-22T09:56:27.985Z,1070.9
2017-07-22T09:57:29.404Z,1071.7
2017-07-22T09:58:30.872Z,1072.4
2017-07-22T09:59:32.288Z,1073.3
2017-07-22T10:00:33.761Z,1074.1
2017-07-22T10:01:35.247Z,1074.8
2017-07-22T10:02:36.728Z,1075.5
2017-07-22T10:03:38.148Z,1080.3
2017-07-22T10:04:39.609Z,1089.8
2017-07-22T10:05:41.056Z,1092.3
2017-07-22T10:06:42.492Z,1090.1
2017-07-22T10:07:44.402Z,1088.0
2017-07-22T10:08:45.822Z,1085.0
2017-07-22T10:09:47.239Z,1083.4
2017-07-22T10:10:48.762Z,1081.7
2017-07-22T10:11:50.182Z,1081.2
2017-07-22T10:12:51.659Z,1081.2
2017-07-22T10:13:53.076Z,1081.5
2017-07-22T10:14:54.545Z,1081.7
2017-07-22T10:15:55.962Z,1081.7
2017-07-22T10:16:57.404Z,1081.5
2017-07-22T10:17:58.847Z,1081.5
2017-07-22T10:19:00.274Z,1081.6
2017-07-22T10:20:01.932Z,1082.0
2017-07-22T10:21:03.351Z,1077.6
2017-07-22T10:22:04.773Z,1073.7
2017-07-22T10:23:06.251Z,1074.0
2017-07-22T10:24:07.685Z,1076.9
2017-07-22T10:25:10.916Z,1074.4
2017-07-22T10:26:12.413Z,1075.8
2017-07-22T10:27:13.842Z,1074.8
2017-07-22T10:28:15.291Z,1075.3
2017-07-22T10:29:16.711Z,1073.4
2017-07-22T10:30:18.188Z,1068.5
2017-07-22T10:31:19.608Z,1068.6
2017-07-22T10:32:21.039Z,1069.2
2017-07-22T10:33:22.498Z,1065.5
2017-07-22T10:34:23.938Z,1065.2
2017-07-22T10:35:25.352Z,1077.3
2017-07-22T10:36:26.819Z,1085.8
2017-07-22T10:37:28.236Z,1073.8
2017-07-22T10:38:29.696Z,1066.1
2017-07-22T10:39:31.136Z,1067.5
2017-07-22T10:40:32.681Z,1073.2
2017-07-22T10:41:34.096Z,1072.4
2017-07-22T10:42:35.560Z,1066.9
2017-07-22T10:43:36.975Z,1065.2
2017-07-22T10:44:38.440Z,1065.1
2017-07-22T10:45:39.871Z,1065.4
2017-07-22T10:46:41.314Z,1066.1
2017-07-22T10:47:42.763Z,1072.3
2017-07-22T10:48:44.195Z,1081.5
2017-07-22T10:49:45.614Z,1086.9
2017-07-22T10:50:47.083Z,1087.2
2017-07-22T10:51:48.503Z,1087.1
2017-07-22T10:52:49.965Z,1087.2
2017-07-22T10:53:51.439Z,1087.7
2017-07-22T10:54:55.087Z,1083.7
2017-07-22T10:55:58.083Z,1077.8
2017-07-22T10:56:59.559Z,1075.0
2017-07-22T10:58:01.061Z,1076.3
2017-07-22T10:59:02.481Z,1078.0
2017-07-22T11:00:03.941Z,1079.7
2017-07-22T11:01:05.360Z,1081.7
2017-07-22T11:02:06.798Z,1083.9
2017-07-22T11:03:08.261Z,1086.1
2017-07-22T11:04:09.684Z,1087.6
2017-07-22T11:05:11.119Z,1089.5
2017-07-22T11:06:12.582Z,1091.2
2017-07-22T11:07:14.003Z,1093.8
2017-07-22T11:08:15.465Z,1095.2
2017-07-22T11:09:16.893Z,1098.6
2017-07-22T11:10:18.341Z,1101.6
2017-07-22T11:11:19.798Z,1104.7
2017-07-22T11:12:21.241Z,1106.9
2017-07-22T11:13:22.641Z,1102.1
2017-07-22T11:14:24.108Z,1094.3
2017-07-22T11:15:25.528Z,1087.9
2017-07-22T11:16:26.943Z,1089.3
2017-07-22T11:17:28.440Z,1088.9
2017-07-22T11:18:29.888Z,1093.3
2017-07-22T11:19:31.304Z,1097.1
2017-07-22T11:20:32.745Z,1095.6
2017-07-22T11:21:34.168Z,1099.5
2017-07-22T11:22:35.625Z,1098.5
2017-07-22T11:23:37.049Z,1103.1
2017-07-22T11:24:38.510Z,1106.6
2017-07-22T11:25:39.942Z,1109.3
2017-07-22T11:26:41.390Z,1107.3
2017-07-22T11:27:42.812Z,1106.3
2017-07-22T11:28:44.270Z,1109.1
2017-07-22T11:29:45.698Z,1107.6
2017-07-22T11:30:47.159Z,1102.2
2017-07-22T11:31:48.577Z,1105.0
2017-07-22T11:32:50.225Z,1106.5
2017-07-22T11:33:51.674Z,1107.4
2017-07-22T11:34:53.101Z,1107.4
2017-07-22T11:35:54.519Z,1107.1
2017-07-22T11:36:56.000Z,1106.4
2017-07-22T11:37:57.435Z,1099.9
2017-07-22T11:38:58.874Z,1091.5
2017-07-22T11:40:00.293Z,1085.2
2017-07-22T11:41:01.756Z,1090.5
2017-07-22T11:42:03.189Z,1082.6
2017-07-22T11:43:04.611Z,1075.7
2017-07-22T11:44:06.081Z,1071.0
2017-07-22T11:45:07.500Z,1079.7
2017-07-22T11:46:08.925Z,1081.8
2017-07-22T11:47:10.399Z,1083.1
2017-07-22T11:48:11.818Z,1083.7
2017-07-22T11:49:13.280Z,1087.1
2017-07-22T11:50:14.698Z,1080.1
2017-07-22T11:51:16.119Z,1070.3
2017-07-22T11:52:17.598Z,1077.2
2017-07-22T11:53:19.016Z,1076.9
2017-07-22T11:54:20.432Z,1080.7
2017-07-22T11:55:21.922Z,1084.1
2017-07-22T11:56:23.369Z,1073.9
2017-07-22T11:57:24.788Z,1084.6
2017-07-22T11:58:26.240Z,1085.9
2017-07-22T11:59:27.668Z,1090.1
2017-07-22T12:00:29.119Z,1091.4
2017-07-22T12:01:30.550Z,1092.5
2017-07-22T12:02:31.971Z,1093.3
2017-07-22T12:03:33.451Z,1093.3
2017-07-22T12:04:34.878Z,1093.6
2017-07-22T12:05:36.575Z,1092.4
2017-07-22T12:06:38.070Z,1091.2
2017-07-22T12:07:39.490Z,1089.2
2017-07-22T12:08:40.970Z,1078.9
2017-07-22T12:09:42.378Z,1073.2
2017-07-22T12:10:43.830Z,1067.0
2017-07-22T12:11:45.251Z,1061.5
2017-07-22T12:12:46.709Z,1056.6
2017-07-22T12:13:48.166Z,1053.7
2017-07-22T12:14:49.706Z,1051.6
2017-07-22T12:15:51.276Z,1057.3
2017-07-22T12:16:52.692Z,1059.5
2017-07-22T12:17:54.222Z,1059.8
2017-07-22T12:18:55.654Z,1055.2
2017-07-22T12:19:57.072Z,1056.9
2017-07-22T12:20:58.557Z,1058.4
2017-07-22T12:21:59.956Z,1059.8
2017-07-22T12:23:01.378Z,1060.4
2017-07-22T12:24:02.859Z,1055.5
2017-07-22T12:25:04.282Z,1055.9
2017-07-22T12:26:05.708Z,1054.9
2017-07-22T12:27:07.191Z,1051.2
2017-07-22T12:28:08.605Z,1047.1
2017-07-22T12:29:10.025Z,1043.1
2017-07-22T12:30:11.533Z,1039.2
2017-07-22T12:31:12.921Z,1035.6
2017-07-22T12:32:14.333Z,1032.2
2017-07-22T12:33:15.826Z,1028.9
2017-07-22T12:34:17.248Z,1026.0
2017-07-22T12:35:18.749Z,1025.6
2017-07-22T12:36:20.122Z,1022.5
2017-07-22T12:37:21.627Z,1019.7
2017-07-22T12:38:23.005Z,1016.9
2017-07-22T12:39:24.467Z,1014.4
2017-07-22T12:40:26.198Z,1012.0
2017-07-22T12:41:27.731Z,1009.7
2017-07-22T12:42:29.172Z,1007.3
2017-07-22T12:43:30.637Z,1005.1
2017-07-22T12:44:32.077Z,1003.0
2017-07-22T12:45:33.524Z,1000.9
2017-07-22T12:46:34.942Z,998.9
2017-07-22T12:47:36.396Z,997.2
2017-07-22T12:48:37.818Z,995.6
2017-07-22T12:49:39.301Z,994.2
2017-07-22T12:50:40.711Z,992.5
2017-07-22T12:51:42.127Z,991.1
2017-07-22T12:52:43.595Z,989.8